createdAt,value
2018-09-17T00:00:50.005Z,1005.72
2018-09-17T00:01:50.026Z,1005.73
2018-09-17T00:02:50.046Z,1005.69
2018-09-17T00:03:50.059Z,1005.70
2018-09-17T00:04:50.078Z,1005.71
2018-09-17T00:05:50.093Z,1005.69
2018-09-17T00:06:50.112Z,1005.66
2018-09-17T00:07:50.129Z,1005.68
2018-09-17T00:08:50.147Z,1005.66
2018-09-17T00:09:50.161Z,1005.64
2018-09-17T00:10:50.193Z,1005.65
2018-09-17T00:11:50.198Z,1005.63
2018-09-17T00:12:50.215Z,1005.64
2018-09-17T00:13:50.230Z,1005.63
2018-09-17T00:14:50.249Z,1005.64
2018-09-17T00:15:50.267Z,1005.66
2018-09-17T00:16:50.287Z,1005.66
2018-09-17T00:17:50.303Z,1005.64
2018-09-17T00:18:50.323Z,1005.66
2018-09-17T00:19:50.336Z,1005.67
2018-09-17T00:20:50.356Z,1005.64
2018-09-17T00:21:50.385Z,1005.67
2018-09-17T00:22:50.387Z,1005.65
2018-09-17T00:23:50.414Z,1005.68
2018-09-17T00:24:50.437Z,1005.69
2018-09-17T00:25:50.441Z,1005.69
2018-09-17T00:26:50.462Z,1005.67
2018-09-17T00:27:50.481Z,1005.65
2018-09-17T00:28:50.500Z,1005.68
2018-09-17T00:29:50.511Z,1005.63
2018-09-17T00:30:50.534Z,1005.65
2018-09-17T00:31:50.549Z,1005.66
2018-09-17T00:32:50.563Z,1005.66
2018-09-17T00:33:50.584Z,1005.66
2018-09-17T00:34:50.598Z,1005.68
2018-09-17T00:35:50.619Z,1005.66
2018-09-17T00:36:50.642Z,1005.72
2018-09-17T00:37:50.650Z,1005.71
2018-09-17T00:38:50.667Z,1005.73
2018-09-17T00:39:50.695Z,1005.73
2018-09-17T00:40:50.710Z,1005.69
2018-09-17T00:41:50.726Z,1005.75
2018-09-17T00:42:50.741Z,1005.67
2018-09-17T00:43:50.756Z,1005.69
2018-09-17T00:44:50.775Z,1005.73
2018-09-17T00:45:50.798Z,1005.69
2018-09-17T00:46:50.812Z,1005.65
2018-09-17T00:47:50.827Z,1005.70
2018-09-17T00:48:50.841Z,1005.65
2018-09-17T00:49:50.874Z,1005.69
2018-09-17T00:50:50.879Z,1005.66
2018-09-17T00:51:50.899Z,1005.64
2018-09-17T00:52:50.920Z,1005.64
2018-09-17T00:53:50.928Z,1005.63
2018-09-17T00:54:50.953Z,1005.62
2018-09-17T00:55:50.967Z,1005.60
2018-09-17T00:56:50.981Z,1005.61
2018-09-17T00:57:51.084Z,1005.63
2018-09-17T00:58:51.018Z,1005.59
2018-09-17T00:59:51.041Z,1005.65
2018-09-17T01:00:51.049Z,1005.61
2018-09-17T01:01:51.067Z,1005.65
2018-09-17T01:02:51.086Z,1005.65
2018-09-17T01:03:51.102Z,1005.66
2018-09-17T01:04:51.125Z,1005.63
2018-09-17T01:05:51.140Z,1005.62
2018-09-17T01:06:51.157Z,1005.67
2018-09-17T01:07:51.175Z,1005.64
2018-09-17T01:08:51.190Z,1005.62
2018-09-17T01:09:51.208Z,1005.63
2018-09-17T01:10:51.228Z,1005.65
2018-09-17T01:11:51.237Z,1005.64
2018-09-17T01:12:51.260Z,1005.69
2018-09-17T01:13:51.273Z,1005.69
2018-09-17T01:14:51.295Z,1005.69
2018-09-17T01:15:51.307Z,1005.68
2018-09-17T01:16:51.332Z,1005.65
2018-09-17T01:17:51.347Z,1005.66
2018-09-17T01:18:51.359Z,1005.69
2018-09-17T01:19:51.391Z,1005.67
2018-09-17T01:20:51.397Z,1005.74
2018-09-17T01:21:51.413Z,1005.66
2018-09-17T01:22:51.429Z,1005.68
2018-09-17T01:23:51.448Z,1005.66
2018-09-17T01:24:51.471Z,1005.69
2018-09-17T01:25:51.483Z,1005.67
2018-09-17T01:26:51.500Z,1005.69
2018-09-17T01:27:51.543Z,1005.67
2018-09-17T01:28:51.534Z,1005.69
2018-09-17T01:29:51.549Z,1005.74
2018-09-17T01:30:51.568Z,1005.72
2018-09-17T01:31:51.586Z,1005.74
2018-09-17T01:32:51.599Z,1005.72
2018-09-17T01:33:51.622Z,1005.79
2018-09-17T01:34:51.636Z,1005.79
2018-09-17T01:35:51.651Z,1005.81
2018-09-17T01:36:51.670Z,1005.81
2018-09-17T01:37:51.684Z,1005.82
2018-09-17T01:38:51.708Z,1005.80
2018-09-17T01:39:51.723Z,1005.83
2018-09-17T01:40:51.738Z,1005.79
2018-09-17T01:41:51.759Z,1005.78
2018-09-17T01:42:51.775Z,1005.77
2018-09-17T01:43:51.786Z,1005.76
2018-09-17T01:44:51.806Z,1005.71
2018-09-17T01:45:51.819Z,1005.76
2018-09-17T01:46:51.842Z,1005.78
2018-09-17T01:47:51.859Z,1005.78
2018-09-17T01:48:51.871Z,1005.78
2018-09-17T01:49:51.891Z,1005.79
2018-09-17T01:50:51.912Z,1005.84
2018-09-17T01:51:51.926Z,1005.82
2018-09-17T01:52:51.943Z,1005.85
2018-09-17T01:53:51.960Z,1005.85
2018-09-17T01:54:51.974Z,1005.82
2018-09-17T01:55:51.990Z,1005.82
2018-09-17T01:56:52.008Z,1005.83
2018-09-17T01:57:52.028Z,1005.84
2018-09-17T01:58:52.045Z,1005.85
2018-09-17T01:59:52.057Z,1005.85
2018-09-17T02:00:52.075Z,1005.85
2018-09-17T02:01:52.093Z,1005.87
2018-09-17T02:02:52.107Z,1005.89
2018-09-17T02:03:52.131Z,1005.91
2018-09-17T02:04:52.147Z,1005.91
2018-09-17T02:05:52.181Z,1005.94
2018-09-17T02:06:52.178Z,1005.95
2018-09-17T02:07:52.198Z,1005.94
2018-09-17T02:08:52.272Z,1005.97
2018-09-17T02:09:52.235Z,1005.94
2018-09-17T02:10:52.255Z,1005.95
2018-09-17T02:11:52.269Z,1005.99
2018-09-17T02:12:52.280Z,1005.99
2018-09-17T02:13:52.298Z,1006.03
2018-09-17T02:14:52.325Z,1006.01
2018-09-17T02:15:52.342Z,1005.99
2018-09-17T02:16:52.346Z,1005.99
2018-09-17T02:17:52.364Z,1005.93
2018-09-17T02:18:52.383Z,1005.96
2018-09-17T02:19:52.398Z,1005.93
2018-09-17T02:20:52.423Z,1005.87
2018-09-17T02:21:52.431Z,1005.86
2018-09-17T02:22:52.455Z,1005.82
2018-09-17T02:23:52.463Z,1005.82
2018-09-17T02:24:52.485Z,1005.80
2018-09-17T02:25:52.502Z,1005.78
2018-09-17T02:26:52.528Z,1005.78
2018-09-17T02:27:52.536Z,1005.80
2018-09-17T02:28:52.549Z,1005.75
2018-09-17T02:29:52.580Z,1005.76
2018-09-17T02:30:52.583Z,1005.76
2018-09-17T02:31:52.599Z,1005.79
2018-09-17T02:32:52.618Z,1005.77
2018-09-17T02:33:52.633Z,1005.73
2018-09-17T02:34:52.669Z,1005.73
2018-09-17T02:35:52.678Z,1005.72
2018-09-17T02:36:52.685Z,1005.74
2018-09-17T02:37:52.700Z,1005.71
2018-09-17T02:38:52.721Z,1005.72
2018-09-17T02:39:52.741Z,1005.72
2018-09-17T02:40:52.748Z,1005.72
2018-09-17T02:41:52.773Z,1005.71
2018-09-17T02:42:52.785Z,1005.75
2018-09-17T02:43:52.802Z,1005.73
2018-09-17T02:44:52.825Z,1005.78
2018-09-17T02:45:52.838Z,1005.76
2018-09-17T02:46:52.851Z,1005.72
2018-09-17T02:47:52.869Z,1005.73
2018-09-17T02:48:52.888Z,1005.75
2018-09-17T02:49:52.903Z,1005.74
2018-09-17T02:50:52.918Z,1005.70
2018-09-17T02:51:52.933Z,1005.66
2018-09-17T02:52:52.951Z,1005.71
2018-09-17T02:53:52.971Z,1005.71
2018-09-17T02:54:52.989Z,1005.70
2018-09-17T02:55:53.003Z,1005.67
2018-09-17T02:56:53.019Z,1005.67
2018-09-17T02:57:53.042Z,1005.65
2018-09-17T02:58:53.058Z,1005.67
2018-09-17T02:59:53.079Z,1005.66
2018-09-17T03:00:53.090Z,1005.63
2018-09-17T03:01:53.102Z,1005.64
2018-09-17T03:02:53.120Z,1005.63
2018-09-17T03:03:53.144Z,1005.67
2018-09-17T03:04:53.160Z,1005.71
2018-09-17T03:05:53.172Z,1005.71
2018-09-17T03:06:53.186Z,1005.73
2018-09-17T03:07:53.207Z,1005.75
2018-09-17T03:08:53.227Z,1005.74
2018-09-17T03:09:53.253Z,1005.75
2018-09-17T03:10:53.252Z,1005.67
2018-09-17T03:11:53.276Z,1005.71
2018-09-17T03:12:53.292Z,1005.74
2018-09-17T03:13:53.314Z,1005.72
2018-09-17T03:14:53.329Z,1005.73
2018-09-17T03:15:53.334Z,1005.75
2018-09-17T03:16:53.357Z,1005.74
2018-09-17T03:17:53.368Z,1005.74
2018-09-17T03:18:53.387Z,1005.75
2018-09-17T03:19:53.403Z,1005.77
2018-09-17T03:20:53.423Z,1005.75
2018-09-17T03:21:53.448Z,1005.71
2018-09-17T03:22:53.467Z,1005.73
2018-09-17T03:23:53.469Z,1005.75
2018-09-17T03:24:53.487Z,1005.78
2018-09-17T03:25:53.504Z,1005.73
2018-09-17T03:26:53.525Z,1005.77
2018-09-17T03:27:53.540Z,1005.78
2018-09-17T03:28:53.552Z,1005.79
2018-09-17T03:29:53.573Z,1005.82
2018-09-17T03:30:53.583Z,1005.78
2018-09-17T03:31:53.606Z,1005.81
2018-09-17T03:32:53.623Z,1005.79
2018-09-17T03:33:53.634Z,1005.78
2018-09-17T03:34:53.651Z,1005.76
2018-09-17T03:35:53.672Z,1005.79
2018-09-17T03:36:53.690Z,1005.78
2018-09-17T03:37:53.705Z,1005.77
2018-09-17T03:38:53.720Z,1005.78
2018-09-17T03:39:53.735Z,1005.79
2018-09-17T03:40:53.751Z,1005.82
2018-09-17T03:41:53.767Z,1005.75
2018-09-17T03:42:53.785Z,1005.80
2018-09-17T03:43:53.806Z,1005.78
2018-09-17T03:44:53.829Z,1005.75
2018-09-17T03:45:53.835Z,1005.76
2018-09-17T03:46:53.860Z,1005.72
2018-09-17T03:47:53.866Z,1005.70
2018-09-17T03:48:53.886Z,1005.71
2018-09-17T03:49:53.899Z,1005.67
2018-09-17T03:50:53.926Z,1005.66
2018-09-17T03:51:53.939Z,1005.68
2018-09-17T03:52:53.953Z,1005.72
2018-09-17T03:53:53.969Z,1005.71
2018-09-17T03:54:53.989Z,1005.75
2018-09-17T03:55:54.002Z,1005.76
2018-09-17T03:56:54.026Z,1005.76
2018-09-17T03:57:54.034Z,1005.80
2018-09-17T03:58:54.053Z,1005.80
2018-09-17T03:59:54.066Z,1005.77
2018-09-17T04:00:54.084Z,1005.76
2018-09-17T04:01:54.100Z,1005.76
2018-09-17T04:02:54.129Z,1005.75
2018-09-17T04:03:54.135Z,1005.77
2018-09-17T04:04:54.150Z,1005.80
2018-09-17T04:05:54.171Z,1005.79
2018-09-17T04:06:54.187Z,1005.81
2018-09-17T04:07:54.205Z,1005.82
2018-09-17T04:08:54.212Z,1005.80
2018-09-17T04:09:54.230Z,1005.77
2018-09-17T04:10:54.256Z,1005.78
2018-09-17T04:11:54.268Z,1005.77
2018-09-17T04:12:54.288Z,1005.79
2018-09-17T04:13:54.303Z,1005.83
2018-09-17T04:14:54.316Z,1005.81
2018-09-17T04:15:54.337Z,1005.80
2018-09-17T04:16:54.354Z,1005.82
2018-09-17T04:17:54.366Z,1005.81
2018-09-17T04:18:54.382Z,1005.82
2018-09-17T04:19:54.396Z,1005.82
2018-09-17T04:20:54.412Z,1005.79
2018-09-17T04:21:54.430Z,1005.81
2018-09-17T04:22:54.445Z,1005.79
2018-09-17T04:23:54.465Z,1005.77
2018-09-17T04:24:54.478Z,1005.75
2018-09-17T04:25:54.496Z,1005.78
2018-09-17T04:26:54.522Z,1005.75
2018-09-17T04:27:54.531Z,1005.78
2018-09-17T04:28:54.549Z,1005.76
2018-09-17T04:29:54.564Z,1005.80
2018-09-17T04:30:54.580Z,1005.81
2018-09-17T04:31:54.612Z,1005.79
2018-09-17T04:32:54.629Z,1005.80
2018-09-17T04:33:54.641Z,1005.81
2018-09-17T04:34:54.649Z,1005.76
2018-09-17T04:35:54.662Z,1005.76
2018-09-17T04:36:54.678Z,1005.79
2018-09-17T04:37:54.694Z,1005.78
2018-09-17T04:38:54.715Z,1005.77
2018-09-17T04:39:54.796Z,1005.72
2018-09-17T04:40:54.761Z,1005.73
2018-09-17T04:41:54.765Z,1005.71
2018-09-17T04:42:54.792Z,1005.67
2018-09-17T04:43:54.834Z,1005.70
2018-09-17T04:44:54.841Z,1005.66
2018-09-17T04:45:54.860Z,1005.64
2018-09-17T04:46:54.859Z,1005.67
2018-09-17T04:47:54.944Z,1005.65
2018-09-17T04:48:54.878Z,1005.65
2018-09-17T04:49:54.902Z,1005.67
2018-09-17T04:50:54.913Z,1005.70
2018-09-17T04:51:54.935Z,1005.67
2018-09-17T04:52:54.957Z,1005.70
2018-09-17T04:53:54.967Z,1005.73
2018-09-17T04:54:55.001Z,1005.78
2018-09-17T04:55:54.997Z,1005.82
2018-09-17T04:56:55.011Z,1005.84
2018-09-17T04:57:55.044Z,1005.86
2018-09-17T04:58:55.079Z,1005.84
2018-09-17T04:59:55.072Z,1005.84
2018-09-17T05:00:55.128Z,1005.85
2018-09-17T05:01:55.097Z,1005.87
2018-09-17T05:02:55.134Z,1005.87
2018-09-17T05:03:55.147Z,1005.84
2018-09-17T05:04:55.143Z,1005.86
2018-09-17T05:05:55.158Z,1005.85
2018-09-17T05:06:55.173Z,1005.87
2018-09-17T05:07:55.192Z,1005.86
2018-09-17T05:08:55.214Z,1005.89
2018-09-17T05:09:55.229Z,1005.86
2018-09-17T05:10:55.245Z,1005.89
2018-09-17T05:11:55.257Z,1005.88
2018-09-17T05:12:55.337Z,1005.86
2018-09-17T05:13:55.293Z,1005.85
2018-09-17T05:14:55.307Z,1005.87
2018-09-17T05:15:55.323Z,1005.90
2018-09-17T05:16:55.339Z,1005.93
2018-09-17T05:17:55.360Z,1005.92
2018-09-17T05:18:55.373Z,1005.92
2018-09-17T05:19:55.395Z,1005.92
2018-09-17T05:20:55.409Z,1005.96
2018-09-17T05:21:55.494Z,1005.93
2018-09-17T05:22:55.441Z,1005.94
2018-09-17T05:23:55.459Z,1005.93
2018-09-17T05:24:55.481Z,1005.91
2018-09-17T05:25:55.508Z,1005.91
2018-09-17T05:26:55.590Z,1005.94
2018-09-17T05:27:55.533Z,1005.95
2018-09-17T05:28:55.548Z,1005.98
2018-09-17T05:29:55.556Z,1005.95
2018-09-17T05:30:55.587Z,1005.96
2018-09-17T05:31:55.594Z,1006.01
2018-09-17T05:32:55.607Z,1006.00
2018-09-17T05:33:55.626Z,1006.03
2018-09-17T05:34:55.700Z,1006.05
2018-09-17T05:35:55.660Z,1006.03
2018-09-17T05:36:55.677Z,1006.02
2018-09-17T05:37:55.691Z,1006.11
2018-09-17T05:38:55.714Z,1006.24
2018-09-17T05:39:55.726Z,1006.35
2018-09-17T05:40:55.748Z,1006.50
2018-09-17T05:41:55.763Z,1006.55
2018-09-17T05:42:55.780Z,1006.56
2018-09-17T05:43:55.800Z,1006.59
2018-09-17T05:44:55.816Z,1006.65
2018-09-17T05:45:55.836Z,1006.61
2018-09-17T05:46:55.851Z,1006.56
2018-09-17T05:47:55.874Z,1006.54
2018-09-17T05:48:55.896Z,1006.47
2018-09-17T05:49:55.912Z,1006.53
2018-09-17T05:50:55.930Z,1006.60
2018-09-17T05:51:55.960Z,1006.65
2018-09-17T05:52:55.965Z,1006.64
2018-09-17T05:53:56.020Z,1006.71
2018-09-17T05:54:56.003Z,1006.80
2018-09-17T05:55:56.031Z,1006.73
2018-09-17T05:56:56.050Z,1006.71
2018-09-17T05:57:56.063Z,1006.73
2018-09-17T05:58:56.083Z,1006.74
2018-09-17T05:59:56.099Z,1006.84
2018-09-17T06:00:56.126Z,1006.87
2018-09-17T06:01:56.140Z,1006.83
2018-09-17T06:02:56.161Z,1006.90
2018-09-17T06:03:56.184Z,1006.89
2018-09-17T06:04:56.204Z,1006.81
2018-09-17T06:05:56.240Z,1006.80
2018-09-17T06:06:56.279Z,1006.81
2018-09-17T06:07:56.271Z,1006.82
2018-09-17T06:08:56.287Z,1006.87
2018-09-17T06:09:56.294Z,1006.89
2018-09-17T06:10:56.329Z,1006.86
2018-09-17T06:11:56.364Z,1006.85
2018-09-17T06:12:56.359Z,1006.89
2018-09-17T06:13:56.383Z,1006.97
2018-09-17T06:14:56.398Z,1007.04
2018-09-17T06:15:56.422Z,1007.05
2018-09-17T06:16:56.453Z,1007.14
2018-09-17T06:17:56.456Z,1007.14
2018-09-17T06:18:56.474Z,1007.14
2018-09-17T06:19:56.501Z,1007.13
2018-09-17T06:20:56.534Z,1007.11
2018-09-17T06:21:56.529Z,1007.28
2018-09-17T06:22:56.549Z,1007.39
2018-09-17T06:23:56.571Z,1007.40
2018-09-17T06:24:56.603Z,1007.40
2018-09-17T06:25:56.620Z,1007.42
2018-09-17T06:26:56.636Z,1007.50
2018-09-17T06:27:56.676Z,1007.51
2018-09-17T06:28:56.677Z,1007.60
2018-09-17T06:29:56.690Z,1007.77
2018-09-17T06:30:56.716Z,1007.85
2018-09-17T06:31:56.745Z,1007.93
2018-09-17T06:32:56.757Z,1007.98
2018-09-17T06:33:56.788Z,1007.98
2018-09-17T06:34:56.797Z,1008.20
2018-09-17T06:35:56.826Z,1008.32
2018-09-17T06:37:56.854Z,1008.23
2018-09-17T06:38:56.879Z,1008.20
2018-09-17T06:39:56.911Z,1008.26
2018-09-17T06:40:56.920Z,1008.43
2018-09-17T06:41:56.981Z,1008.42
2018-09-17T06:42:56.980Z,1008.54
2018-09-17T06:43:56.982Z,1008.58
2018-09-17T06:44:57.079Z,1008.65
2018-09-17T06:45:57.029Z,1008.91
2018-09-17T06:46:57.050Z,1009.25
2018-09-17T06:47:57.090Z,1009.30
2018-09-17T06:48:57.097Z,1009.33
2018-09-17T06:49:57.121Z,1009.31
2018-09-17T06:50:57.141Z,1009.19
2018-09-17T06:51:57.167Z,1009.13
2018-09-17T06:52:57.214Z,1008.98
2018-09-17T06:53:57.207Z,1008.87
2018-09-17T06:54:57.230Z,1008.56
2018-09-17T06:55:57.257Z,1008.26
2018-09-17T06:56:57.279Z,1008.16
2018-09-17T06:57:57.297Z,1008.12
2018-09-17T06:58:57.321Z,1008.10
2018-09-17T06:59:57.352Z,1008.18
2018-09-17T07:00:57.372Z,1008.23
2018-09-17T07:01:57.413Z,1008.30
2018-09-17T07:02:57.417Z,1008.22
2018-09-17T07:03:57.442Z,1008.09
2018-09-17T07:04:57.464Z,1008.06
2018-09-17T07:05:57.480Z,1008.15
2018-09-17T07:06:57.506Z,1008.15
2018-09-17T07:07:57.529Z,1008.10
2018-09-17T07:08:57.550Z,1008.16
2018-09-17T07:09:57.573Z,1008.30
2018-09-17T07:10:57.604Z,1008.54
2018-09-17T07:11:57.624Z,1008.62
2018-09-17T07:12:57.640Z,1008.78
2018-09-17T07:13:57.663Z,1008.85
2018-09-17T07:14:57.684Z,1008.98
2018-09-17T07:15:57.704Z,1009.19
2018-09-17T07:16:57.737Z,1009.21
2018-09-17T07:17:57.801Z,1009.18
2018-09-17T07:18:57.789Z,1009.22
2018-09-17T07:19:57.795Z,1009.20
2018-09-17T07:20:57.819Z,1009.20
2018-09-17T07:21:57.839Z,1009.23
2018-09-17T07:22:57.864Z,1009.17
2018-09-17T07:23:57.886Z,1009.04
2018-09-17T07:24:57.911Z,1008.80
2018-09-17T07:25:57.940Z,1008.83
2018-09-17T07:26:57.959Z,1008.89
2018-09-17T07:27:57.979Z,1008.78
2018-09-17T07:28:57.999Z,1008.68
2018-09-17T07:29:58.028Z,1008.52
2018-09-17T07:30:58.061Z,1008.37
2018-09-17T07:31:58.076Z,1008.43
2018-09-17T07:32:58.092Z,1008.41
2018-09-17T07:33:58.115Z,1008.30
2018-09-17T07:34:58.141Z,1008.25
2018-09-17T07:35:58.170Z,1008.23
2018-09-17T07:36:58.185Z,1008.28
2018-09-17T07:37:58.208Z,1008.28
2018-09-17T07:38:58.229Z,1008.25
2018-09-17T07:39:58.253Z,1008.26
2018-09-17T07:40:58.276Z,1008.33
2018-09-17T07:41:58.305Z,1008.32
2018-09-17T07:42:59.069Z,1008.31
2018-09-17T07:43:58.344Z,1008.37
2018-09-17T07:44:58.377Z,1008.47
2018-09-17T07:45:58.397Z,1008.42
2018-09-17T07:46:58.421Z,1008.40
2018-09-17T07:47:58.439Z,1008.37
2018-09-17T07:48:58.463Z,1008.42
2018-09-17T07:49:58.491Z,1008.36
2018-09-17T07:50:58.511Z,1008.24
2018-09-17T07:51:58.531Z,1008.14
2018-09-17T07:52:58.561Z,1008.19
2018-09-17T07:53:58.577Z,1008.31
2018-09-17T07:54:58.599Z,1008.29
2018-09-17T07:55:58.636Z,1008.28
2018-09-17T07:56:58.646Z,1008.35
2018-09-17T07:57:58.674Z,1008.33
2018-09-17T07:58:58.707Z,1008.30
2018-09-17T07:59:58.723Z,1008.26
2018-09-17T08:00:58.743Z,1008.28
2018-09-17T08:01:58.772Z,1008.27
2018-09-17T08:02:58.792Z,1008.23
2018-09-17T08:03:58.834Z,1008.17
2018-09-17T08:04:58.849Z,1008.14
2018-09-17T08:05:58.865Z,1008.06
2018-09-17T08:06:58.890Z,1008.06
2018-09-17T08:07:58.917Z,1008.02
2018-09-17T08:08:58.939Z,1008.03
2018-09-17T08:09:58.967Z,1007.98
2018-09-17T08:10:58.995Z,1007.99
2018-09-17T08:11:59.018Z,1007.94
2018-09-17T08:12:59.042Z,1007.82
2018-09-17T08:13:59.065Z,1007.79
2018-09-17T08:14:59.096Z,1007.89
2018-09-17T08:15:59.119Z,1007.80
2018-09-17T08:16:59.157Z,1007.77
2018-09-17T08:17:59.165Z,1007.89
2018-09-17T08:18:59.197Z,1007.86
2018-09-17T08:19:59.223Z,1007.60
2018-09-17T08:20:59.249Z,1007.49
2018-09-17T08:21:59.266Z,1007.44
2018-09-17T08:22:59.296Z,1007.32
2018-09-17T08:23:59.315Z,1007.15
2018-09-17T08:24:59.349Z,1006.96
2018-09-17T08:25:59.361Z,1006.92
2018-09-17T08:26:59.388Z,1006.93
2018-09-17T08:27:59.418Z,1006.89
2018-09-17T08:28:59.444Z,1006.81
2018-09-17T08:29:59.468Z,1006.78
2018-09-17T08:30:59.487Z,1006.80
2018-09-17T08:31:59.510Z,1006.74
2018-09-17T08:32:59.532Z,1006.76
2018-09-17T08:33:59.554Z,1006.73
2018-09-17T08:34:59.577Z,1006.71
2018-09-17T08:35:59.610Z,1006.69
2018-09-17T08:36:59.625Z,1006.74
2018-09-17T08:37:59.646Z,1006.75
2018-09-17T08:38:59.674Z,1006.73
2018-09-17T08:39:59.693Z,1006.70
2018-09-17T08:40:59.719Z,1006.71
2018-09-17T08:41:59.749Z,1006.72
2018-09-17T08:42:59.764Z,1006.80
2018-09-17T08:43:59.788Z,1006.81
2018-09-17T08:44:59.803Z,1006.86
2018-09-17T08:45:59.826Z,1006.89
2018-09-17T08:46:59.850Z,1006.92
2018-09-17T08:47:59.874Z,1006.86
2018-09-17T08:48:59.895Z,1006.91
2018-09-17T08:49:59.918Z,1006.88
2018-09-17T08:50:59.943Z,1006.92
2018-09-17T08:51:59.961Z,1006.90
2018-09-17T08:52:59.985Z,1006.88
2018-09-17T08:54:00.004Z,1006.85
2018-09-17T08:55:00.038Z,1006.76
2018-09-17T08:56:00.064Z,1006.82
2018-09-17T08:57:00.075Z,1006.75
2018-09-17T08:58:00.096Z,1006.71
2018-09-17T08:59:00.115Z,1006.79
2018-09-17T09:00:00.145Z,1006.77
2018-09-17T09:01:00.167Z,1006.76
2018-09-17T09:02:00.187Z,1006.79
2018-09-17T09:03:00.210Z,1006.76
2018-09-17T09:04:00.275Z,1006.74
2018-09-17T09:05:00.312Z,1006.73
2018-09-17T09:06:00.290Z,1006.74
2018-09-17T09:07:00.302Z,1006.71
2018-09-17T09:08:00.318Z,1006.70
2018-09-17T09:09:00.344Z,1006.68
2018-09-17T09:10:00.363Z,1006.66
2018-09-17T09:11:00.400Z,1006.69
2018-09-17T09:12:00.414Z,1006.65
2018-09-17T09:13:00.429Z,1006.68
2018-09-17T09:14:00.452Z,1006.67
2018-09-17T09:15:00.474Z,1006.65
2018-09-17T09:16:00.504Z,1006.62
2018-09-17T09:17:00.516Z,1006.64
2018-09-17T09:18:00.540Z,1006.63
2018-09-17T09:19:00.565Z,1006.65
2018-09-17T09:20:00.583Z,1006.64
2018-09-17T09:21:00.613Z,1006.58
2018-09-17T09:22:00.628Z,1006.59
2018-09-17T09:23:00.651Z,1006.59
2018-09-17T09:24:00.675Z,1006.56
2018-09-17T09:25:00.692Z,1006.53
2018-09-17T09:26:00.716Z,1006.55
2018-09-17T09:27:00.790Z,1006.50
2018-09-17T09:28:00.759Z,1006.50
2018-09-17T09:29:00.780Z,1006.46
2018-09-17T09:30:00.802Z,1006.48
2018-09-17T09:31:00.830Z,1006.48
2018-09-17T09:32:00.849Z,1006.48
2018-09-17T09:33:00.870Z,1006.41
2018-09-17T09:34:00.905Z,1006.38
2018-09-17T09:35:00.930Z,1006.36
2018-09-17T09:36:00.943Z,1006.32
2018-09-17T09:37:00.961Z,1006.32
2018-09-17T09:38:01.018Z,1006.31
2018-09-17T09:39:01.009Z,1006.25
2018-09-17T09:40:01.033Z,1006.29
2018-09-17T09:41:01.051Z,1006.28
2018-09-17T09:42:01.086Z,1006.29
2018-09-17T09:43:01.098Z,1006.34
2018-09-17T09:44:01.124Z,1006.30
2018-09-17T09:45:01.141Z,1006.31
2018-09-17T09:46:01.171Z,1006.33
2018-09-17T09:47:01.183Z,1006.33
2018-09-17T09:48:01.214Z,1006.30
2018-09-17T09:49:01.234Z,1006.29
2018-09-17T09:50:01.251Z,1006.34
2018-09-17T09:51:01.271Z,1006.35
2018-09-17T09:52:01.296Z,1006.36
2018-09-17T09:53:01.321Z,1006.38
2018-09-17T09:54:01.357Z,1006.36
2018-09-17T09:55:01.392Z,1006.40
2018-09-17T09:56:01.383Z,1006.41
2018-09-17T09:57:01.406Z,1006.42
2018-09-17T09:58:01.456Z,1006.45
2018-09-17T09:59:01.456Z,1006.46
2018-09-17T10:00:01.480Z,1006.44
2018-09-17T10:01:01.515Z,1006.44
2018-09-17T10:02:01.520Z,1006.41
2018-09-17T10:03:01.543Z,1006.39
2018-09-17T10:04:01.562Z,1006.37
2018-09-17T10:05:01.585Z,1006.32
2018-09-17T10:06:01.623Z,1006.32
2018-09-17T10:07:01.633Z,1006.26
2018-09-17T10:08:01.665Z,1006.27
2018-09-17T10:09:01.682Z,1006.24
2018-09-17T10:10:01.703Z,1006.24
2018-09-17T10:11:01.728Z,1006.23
2018-09-17T10:12:01.749Z,1006.21
2018-09-17T10:13:01.772Z,1006.19
2018-09-17T10:14:01.792Z,1006.21
2018-09-17T10:15:01.813Z,1006.25
2018-09-17T10:16:01.838Z,1006.20
2018-09-17T10:17:01.863Z,1006.19
2018-09-17T10:18:01.891Z,1006.18
2018-09-17T10:19:01.906Z,1006.17
2018-09-17T10:20:01.928Z,1006.13
2018-09-17T10:21:01.946Z,1006.12
2018-09-17T10:22:01.973Z,1006.09
2018-09-17T10:23:01.997Z,1006.05
2018-09-17T10:24:02.024Z,1006.05
2018-09-17T10:25:02.041Z,1006.05
2018-09-17T10:26:02.063Z,1006.02
2018-09-17T10:27:02.087Z,1006.03
2018-09-17T10:28:02.115Z,1006.01
2018-09-17T10:29:02.127Z,1006.00
2018-09-17T10:30:02.244Z,1006.04
2018-09-17T10:31:02.232Z,1006.00
2018-09-17T10:32:02.203Z,1005.97
2018-09-17T10:33:02.225Z,1006.01
2018-09-17T10:34:02.241Z,1005.98
2018-09-17T10:35:02.264Z,1006.01
2018-09-17T10:36:02.290Z,1006.03
2018-09-17T10:37:02.313Z,1006.00
2018-09-17T10:38:02.340Z,1006.01
2018-09-17T10:39:02.366Z,1005.99
2018-09-17T10:40:02.381Z,1005.98
2018-09-17T10:41:02.405Z,1005.98
2018-09-17T10:42:02.423Z,1005.95
2018-09-17T10:43:02.457Z,1005.96
2018-09-17T10:44:02.468Z,1005.94
2018-09-17T10:45:02.494Z,1005.91
2018-09-17T10:46:02.516Z,1005.92
2018-09-17T10:47:02.582Z,1005.90
2018-09-17T10:48:02.571Z,1005.89
2018-09-17T10:49:02.586Z,1005.89
2018-09-17T10:50:02.613Z,1005.89
2018-09-17T10:51:02.636Z,1005.85
2018-09-17T10:52:02.666Z,1005.84
2018-09-17T10:53:02.683Z,1005.86
2018-09-17T10:54:02.705Z,1005.85
2018-09-17T10:55:02.726Z,1005.82
2018-09-17T10:56:02.747Z,1005.83
2018-09-17T10:57:02.768Z,1005.79
2018-09-17T10:58:02.794Z,1005.81
2018-09-17T10:59:02.818Z,1005.76
2018-09-17T11:00:02.847Z,1005.72
2018-09-17T11:01:02.864Z,1005.72
2018-09-17T11:02:02.891Z,1005.70
2018-09-17T11:03:02.911Z,1005.70
2018-09-17T11:04:02.939Z,1005.72
2018-09-17T11:05:02.969Z,1005.72
2018-09-17T11:06:02.984Z,1005.74
2018-09-17T11:07:03.013Z,1005.74
2018-09-17T11:08:03.023Z,1005.76
2018-09-17T11:09:03.047Z,1005.75
2018-09-17T11:10:03.081Z,1005.71
2018-09-17T11:11:03.094Z,1005.73
2018-09-17T11:12:03.125Z,1005.75
2018-09-17T11:13:03.144Z,1005.72
2018-09-17T11:14:03.164Z,1005.74
2018-09-17T11:15:03.187Z,1005.70
2018-09-17T11:16:03.222Z,1005.72
2018-09-17T11:17:03.237Z,1005.71
2018-09-17T11:18:03.258Z,1005.67
2018-09-17T11:19:03.283Z,1005.66
2018-09-17T11:20:03.307Z,1005.64
2018-09-17T11:21:03.334Z,1005.62
2018-09-17T11:22:03.355Z,1005.62
2018-09-17T11:23:03.395Z,1005.61
2018-09-17T11:24:03.399Z,1005.58
2018-09-17T11:25:03.461Z,1005.57
2018-09-17T11:26:03.446Z,1005.58
2018-09-17T11:27:03.470Z,1005.55
2018-09-17T11:28:03.495Z,1005.57
2018-09-17T11:29:03.518Z,1005.59
2018-09-17T11:30:03.543Z,1005.53
2018-09-17T11:31:03.562Z,1005.53
2018-09-17T11:32:03.599Z,1005.51
2018-09-17T11:33:03.617Z,1005.52
2018-09-17T11:34:03.638Z,1005.54
2018-09-17T11:35:03.691Z,1005.56
2018-09-17T11:36:03.691Z,1005.54
2018-09-17T11:37:03.707Z,1005.52
2018-09-17T11:38:03.727Z,1005.53
2018-09-17T11:39:03.760Z,1005.48
2018-09-17T11:40:03.777Z,1005.46
2018-09-17T11:41:03.815Z,1005.41
2018-09-17T11:42:03.826Z,1005.43
2018-09-17T11:43:03.853Z,1005.41
2018-09-17T11:44:03.873Z,1005.37
2018-09-17T11:45:03.894Z,1005.37
2018-09-17T11:46:03.917Z,1005.36
2018-09-17T11:47:03.956Z,1005.31
2018-09-17T11:48:03.979Z,1005.27
2018-09-17T11:49:03.996Z,1005.30
2018-09-17T11:50:04.011Z,1005.28
2018-09-17T11:51:04.038Z,1005.28
2018-09-17T11:52:04.058Z,1005.24
2018-09-17T11:53:04.086Z,1005.24
2018-09-17T11:54:04.159Z,1005.23
2018-09-17T11:55:04.131Z,1005.21
2018-09-17T11:56:04.154Z,1005.19
2018-09-17T11:57:04.188Z,1005.19
2018-09-17T11:58:04.196Z,1005.18
2018-09-17T11:59:04.224Z,1005.20
2018-09-17T12:00:04.251Z,1005.22
2018-09-17T12:01:04.271Z,1005.19
2018-09-17T12:02:04.377Z,1005.18
2018-09-17T12:03:04.313Z,1005.10
2018-09-17T12:04:04.344Z,1005.10
2018-09-17T12:05:04.362Z,1005.11
2018-09-17T12:06:04.441Z,1005.15
2018-09-17T12:07:04.410Z,1005.08